Taurus — WDF3127 — position and weather

sailwx.info

Track history (hours):
 
Tides and Currents Weather Stations Pressure Air Temp Water Temp Dewpoint Dewpoint Depression Visibility Wind Speed Wind Dir Waves Ship Positions

Taurus

Owner: San Francisco Bay Area Water Emergency Transportation Authority, San Francisco, CA. More information available from US FCC via Universal Licensing System and Coast Guard Vessel Documentation Center.

Last reported at 2017-May-29 00:51 UTC. Time now 2017-May-29 22:59 UTC.
Position N 37°48' W 122°24'.

Type: Passenger vessel. MMSI: 367436230.

Date/timePositionNaut miles runAvg speedWind from/ knotsBaromVisibWave heightAir tempDewpointWater temp
2017-May-29 00:51N 37°48' W 122°24'0 0.0
2017-May-29 00:30N 37°48' W 122°24'0 0.0
2017-May-29 00:00N 37°48' W 122°24'0 0.0
2017-May-28 23:30N 37°48' W 122°24'0 0.0
2017-May-28 23:00N 37°48' W 122°24'0 0.0
2017-May-28 22:30N 37°48' W 122°24'0 0.0
2017-May-28 22:00N 37°48' W 122°24'0 0.0
2017-May-28 21:30N 37°48' W 122°24'0 0.0
2017-May-28 21:00N 37°48' W 122°24'0 0.0
2017-May-28 20:30N 37°48' W 122°24'0 0.0
2017-May-28 20:00N 37°48' W 122°24'0 0.0
2017-May-28 19:30N 37°48' W 122°24'0 0.0
2017-May-28 19:00N 37°48' W 122°24'0 0.0
2017-May-28 18:30N 37°48' W 122°24'0 0.0
2017-May-28 18:00N 37°48' W 122°24'0 0.0
2017-May-28 02:15N 37°48' W 122°24'1 5.3
2017-May-28 02:01N 37°47' W 122°23'4 7.3
2017-May-28 01:30N 37°48' W 122°18'1 2.5
2017-May-28 01:00N 37°48' W 122°17'4 8.7
2017-May-28 00:30N 37°48' W 122°22'1 2.5
2017-May-28 00:00N 37°48' W 122°24'0 0.0
2017-May-27 23:30N 37°48' W 122°24'0 0.0
2017-May-27 03:27N 37°48' W 122°24'511.4
2017-May-27 03:00N 37°48' W 122°18'1 2.6
2017-May-27 02:31N 37°48' W 122°19'816.7
2017-May-27 02:01N 37°40' W 122°23'714.3
2017-May-27 01:30N 37°44' W 122°15'714.5
2017-May-27 01:00N 37°48' W 122°24'5 9.2
2017-May-27 00:31N 37°47' W 122°18'1 1.6
2017-May-27 00:01N 37°48' W 122°17'713.5
2017-May-26 23:31N 37°42' W 122°21'2 4.5
2017-May-26 23:00N 37°40' W 122°23'815.8
2017-May-26 22:30N 37°48' W 122°24'0 0.9
2017-May-26 22:00N 37°48' W 122°24'0 0.0
2017-May-26 21:31N 37°48' W 122°24'0 0.0
2017-May-26 21:00N 37°48' W 122°24'0 0.0
2017-May-26 20:30N 37°48' W 122°24'0 0.0
2017-May-26 20:01N 37°48' W 122°24'0 0.0
2017-May-26 19:30N 37°48' W 122°24'0 0.0
2017-May-26 19:00N 37°48' W 122°24'1 1.8
2017-May-26 18:30N 37°49' W 122°25'0 0.8
2017-May-26 18:01N 37°49' W 122°25'611.6
2017-May-26 17:31N 37°47' W 122°18'1 1.4
2017-May-26 17:00N 37°48' W 122°17'510.6
2017-May-26 16:31N 37°48' W 122°24'0 0.0
2017-May-26 16:00N 37°48' W 122°24'815.9
2017-May-26 15:30N 37°40' W 122°22'611.8
2017-May-26 15:01N 37°46' W 122°20'3 5.8
2017-May-26 14:30N 37°47' W 122°18'5 0.4
2017-May-26 03:29N 37°48' W 122°24'4 8.5
2017-May-26 03:00N 37°48' W 122°19'1 1.1
2017-May-26 02:31N 37°47' W 122°18'817.0
2017-May-26 02:00N 37°40' W 122°23'714.4
2017-May-26 01:30N 37°44' W 122°15'714.6
2017-May-26 01:00N 37°48' W 122°24'4 8.2
2017-May-26 00:31N 37°48' W 122°18'1 2.5
2017-May-26 00:00N 37°48' W 122°17'815.0
2017-May-25 23:31N 37°41' W 122°21'2 3.2
2017-May-25 23:01N 37°40' W 122°23'815.7
2017-May-25 22:30N 37°48' W 122°24'0 0.8
2017-May-25 22:00N 37°48' W 122°24'0 0.0
2017-May-25 21:30N 37°48' W 122°24'0 0.0
2017-May-25 21:00N 37°48' W 122°24'0 0.0
2017-May-25 20:30N 37°48' W 122°24'0 0.0
2017-May-25 20:00N 37°48' W 122°24'0 0.0
2017-May-25 19:30N 37°48' W 122°24'0 0.1
2017-May-25 19:00N 37°48' W 122°24'1 1.8
2017-May-25 18:30N 37°49' W 122°25'1 2.3
2017-May-25 18:01N 37°49' W 122°23'5 9.3
2017-May-25 17:31N 37°47' W 122°18'1 1.4
2017-May-25 17:01N 37°48' W 122°17'510.6
2017-May-25 16:31N 37°48' W 122°24'4 8.5
2017-May-25 16:01N 37°44' W 122°21'4 8.2
2017-May-25 15:30N 37°40' W 122°23'713.3
2017-May-25 15:01N 37°46' W 122°21'3 5.6
2017-May-25 14:30N 37°47' W 122°18'5 0.4
2017-May-25 03:23N 37°48' W 122°24'3 8.2
2017-May-25 03:00N 37°48' W 122°20'2 3.1
2017-May-25 02:31N 37°47' W 122°18'816.9
2017-May-25 02:00N 37°40' W 122°23'714.0
2017-May-25 01:31N 37°44' W 122°16'714.3
2017-May-25 01:00N 37°48' W 122°24'4 8.8
2017-May-25 00:31N 37°47' W 122°18'1 1.8
2017-May-25 00:01N 37°48' W 122°17'714.2
2017-May-24 23:31N 37°41' W 122°21'2 3.7
2017-May-24 23:01N 37°40' W 122°22'815.8
2017-May-24 22:30N 37°48' W 122°24'0 0.9
2017-May-24 22:00N 37°48' W 122°24'0 0.0
2017-May-24 21:30N 37°48' W 122°24'1 2.0
2017-May-24 21:00N 37°49' W 122°25'0 0.3
2017-May-24 20:30N 37°49' W 122°25'0 0.0
2017-May-24 20:00N 37°49' W 122°25'1 1.7
2017-May-24 19:30N 37°48' W 122°24'0 0.0
2017-May-24 19:00N 37°48' W 122°24'0 0.0
2017-May-24 18:30N 37°48' W 122°24'0 0.0
2017-May-24 18:00N 37°48' W 122°24'0 0.0
2017-May-24 17:30N 37°48' W 122°24'0 0.0
2017-May-24 17:00N 37°48' W 122°24'3 5.6
2017-May-24 16:31N 37°46' W 122°22'611.7
2017-May-24 16:01N 37°40' W 122°23'917.4
2017-May-24 15:30N 37°48' W 122°17'0 0.4
2017-May-24 15:01N 37°47' W 122°18'3 3.1
2017-May-24 14:01N 37°46' W 122°21'3 6.6
2017-May-24 13:31N 37°48' W 122°18'5 9.9
2017-May-24 13:00N 37°48' W 122°24'0 0.0
2017-May-24 06:22N 37°48' W 122°24'0 0.0
2017-May-23 22:00N 37°48' W 122°24'0 0.3
2017-May-23 21:30N 37°48' W 122°24'  
2017-May-20 19:33N 37°48' W 122°24'0 0.0
2017-May-20 19:30N 37°48' W 122°24'0 0.0
2017-May-20 19:00N 37°48' W 122°24'0 0.0
2017-May-20 18:30N 37°48' W 122°24'0 0.0
2017-May-20 18:00N 37°48' W 122°24'0 0.0
2017-May-19 04:45N 37°48' W 122°24'0 1.8
2017-May-19 04:30N 37°48' W 122°23'510.5
2017-May-19 04:00N 37°48' W 122°17'5 9.7
2017-May-19 03:31N 37°48' W 122°23'2 3.4
2017-May-19 03:01N 37°49' W 122°25'0 0.1
2017-May-19 02:31N 37°49' W 122°25'0 0.0
2017-May-19 02:00N 37°49' W 122°25'3 6.0
2017-May-19 01:31N 37°48' W 122°21'3 5.5
2017-May-19 01:01N 37°47' W 122°18'  
Track history (hours):
 
Tides and Currents Weather Stations Pressure Air Temp Water Temp Dewpoint Dewpoint Depression Visibility Wind Speed Wind Dir Waves Ship Positions

Taurus

Owner: San Francisco Bay Area Water Emergency Transportation Authority, San Francisco, CA. More information available from US FCC via Universal Licensing System and Coast Guard Vessel Documentation Center.

Last reported at 2017-May-29 00:51 UTC. Time now 2017-May-29 22:59 UTC.
Position N 37°48' W 122°24'.

Type: Passenger vessel. MMSI: 367436230.

Date/timePositionNaut miles runAvg speedWind from/ knotsBaromVisibWave heightAir tempDewpointWater temp
2017-May-29 00:51N 37°48' W 122°24'0 0.0
2017-May-29 00:30N 37°48' W 122°24'0 0.0
2017-May-29 00:00N 37°48' W 122°24'0 0.0
2017-May-28 23:30N 37°48' W 122°24'0 0.0
2017-May-28 23:00N 37°48' W 122°24'0 0.0
2017-May-28 22:30N 37°48' W 122°24'0 0.0
2017-May-28 22:00N 37°48' W 122°24'0 0.0
2017-May-28 21:30N 37°48' W 122°24'0 0.0
2017-May-28 21:00N 37°48' W 122°24'0 0.0
2017-May-28 20:30N 37°48' W 122°24'0 0.0
2017-May-28 20:00N 37°48' W 122°24'0 0.0
2017-May-28 19:30N 37°48' W 122°24'0 0.0
2017-May-28 19:00N 37°48' W 122°24'0 0.0
2017-May-28 18:30N 37°48' W 122°24'0 0.0
2017-May-28 18:00N 37°48' W 122°24'0 0.0
2017-May-28 02:15N 37°48' W 122°24'1 5.3
2017-May-28 02:01N 37°47' W 122°23'4 7.3
2017-May-28 01:30N 37°48' W 122°18'1 2.5
2017-May-28 01:00N 37°48' W 122°17'4 8.7
2017-May-28 00:30N 37°48' W 122°22'1 2.5
2017-May-28 00:00N 37°48' W 122°24'0 0.0
2017-May-27 23:30N 37°48' W 122°24'0 0.0
2017-May-27 03:27N 37°48' W 122°24'511.4
2017-May-27 03:00N 37°48' W 122°18'1 2.6
2017-May-27 02:31N 37°48' W 122°19'816.7
2017-May-27 02:01N 37°40' W 122°23'714.3
2017-May-27 01:30N 37°44' W 122°15'714.5
2017-May-27 01:00N 37°48' W 122°24'5 9.2
2017-May-27 00:31N 37°47' W 122°18'1 1.6
2017-May-27 00:01N 37°48' W 122°17'713.5
2017-May-26 23:31N 37°42' W 122°21'2 4.5
2017-May-26 23:00N 37°40' W 122°23'815.8
2017-May-26 22:30N 37°48' W 122°24'0 0.9
2017-May-26 22:00N 37°48' W 122°24'0 0.0
2017-May-26 21:31N 37°48' W 122°24'0 0.0
2017-May-26 21:00N 37°48' W 122°24'0 0.0
2017-May-26 20:30N 37°48' W 122°24'0 0.0
2017-May-26 20:01N 37°48' W 122°24'0 0.0
2017-May-26 19:30N 37°48' W 122°24'0 0.0
2017-May-26 19:00N 37°48' W 122°24'1 1.8
2017-May-26 18:30N 37°49' W 122°25'0 0.8
2017-May-26 18:01N 37°49' W 122°25'611.6
2017-May-26 17:31N 37°47' W 122°18'1 1.4
2017-May-26 17:00N 37°48' W 122°17'510.6
2017-May-26 16:31N 37°48' W 122°24'0 0.0
2017-May-26 16:00N 37°48' W 122°24'815.9
2017-May-26 15:30N 37°40' W 122°22'611.8
2017-May-26 15:01N 37°46' W 122°20'3 5.8
2017-May-26 14:30N 37°47' W 122°18'5 0.4
2017-May-26 03:29N 37°48' W 122°24'4 8.5
2017-May-26 03:00N 37°48' W 122°19'1 1.1
2017-May-26 02:31N 37°47' W 122°18'817.0
2017-May-26 02:00N 37°40' W 122°23'714.4
2017-May-26 01:30N 37°44' W 122°15'714.6
2017-May-26 01:00N 37°48' W 122°24'4 8.2
2017-May-26 00:31N 37°48' W 122°18'1 2.5
2017-May-26 00:00N 37°48' W 122°17'815.0
2017-May-25 23:31N 37°41' W 122°21'2 3.2
2017-May-25 23:01N 37°40' W 122°23'815.7
2017-May-25 22:30N 37°48' W 122°24'0 0.8
2017-May-25 22:00N 37°48' W 122°24'0 0.0
2017-May-25 21:30N 37°48' W 122°24'0 0.0
2017-May-25 21:00N 37°48' W 122°24'0 0.0
2017-May-25 20:30N 37°48' W 122°24'0 0.0
2017-May-25 20:00N 37°48' W 122°24'0 0.0
2017-May-25 19:30N 37°48' W 122°24'0 0.1
2017-May-25 19:00N 37°48' W 122°24'1 1.8
2017-May-25 18:30N 37°49' W 122°25'1 2.3
2017-May-25 18:01N 37°49' W 122°23'5 9.3
2017-May-25 17:31N 37°47' W 122°18'1 1.4
2017-May-25 17:01N 37°48' W 122°17'510.6
2017-May-25 16:31N 37°48' W 122°24'4 8.5
2017-May-25 16:01N 37°44' W 122°21'4 8.2
2017-May-25 15:30N 37°40' W 122°23'713.3
2017-May-25 15:01N 37°46' W 122°21'3 5.6
2017-May-25 14:30N 37°47' W 122°18'5 0.4
2017-May-25 03:23N 37°48' W 122°24'3 8.2
2017-May-25 03:00N 37°48' W 122°20'2 3.1
2017-May-25 02:31N 37°47' W 122°18'816.9
2017-May-25 02:00N 37°40' W 122°23'714.0
2017-May-25 01:31N 37°44' W 122°16'714.3
2017-May-25 01:00N 37°48' W 122°24'4 8.8
2017-May-25 00:31N 37°47' W 122°18'1 1.8
2017-May-25 00:01N 37°48' W 122°17'714.2
2017-May-24 23:31N 37°41' W 122°21'2 3.7
2017-May-24 23:01N 37°40' W 122°22'815.8
2017-May-24 22:30N 37°48' W 122°24'0 0.9
2017-May-24 22:00N 37°48' W 122°24'0 0.0
2017-May-24 21:30N 37°48' W 122°24'1 2.0
2017-May-24 21:00N 37°49' W 122°25'0 0.3
2017-May-24 20:30N 37°49' W 122°25'0 0.0
2017-May-24 20:00N 37°49' W 122°25'1 1.7
2017-May-24 19:30N 37°48' W 122°24'0 0.0
2017-May-24 19:00N 37°48' W 122°24'0 0.0
2017-May-24 18:30N 37°48' W 122°24'0 0.0
2017-May-24 18:00N 37°48' W 122°24'0 0.0
2017-May-24 17:30N 37°48' W 122°24'0 0.0
2017-May-24 17:00N 37°48' W 122°24'3 5.6
2017-May-24 16:31N 37°46' W 122°22'611.7
2017-May-24 16:01N 37°40' W 122°23'917.4
2017-May-24 15:30N 37°48' W 122°17'0 0.4
2017-May-24 15:01N 37°47' W 122°18'3 3.1
2017-May-24 14:01N 37°46' W 122°21'3 6.6
2017-May-24 13:31N 37°48' W 122°18'5 9.9
2017-May-24 13:00N 37°48' W 122°24'0 0.0
2017-May-24 06:22N 37°48' W 122°24'0 0.0
2017-May-23 22:00N 37°48' W 122°24'0 0.3
2017-May-23 21:30N 37°48' W 122°24'  
2017-May-20 19:33N 37°48' W 122°24'0 0.0
2017-May-20 19:30N 37°48' W 122°24'0 0.0
2017-May-20 19:00N 37°48' W 122°24'0 0.0
2017-May-20 18:30N 37°48' W 122°24'0 0.0
2017-May-20 18:00N 37°48' W 122°24'0 0.0
2017-May-19 04:45N 37°48' W 122°24'0 1.8
2017-May-19 04:30N 37°48' W 122°23'510.5
2017-May-19 04:00N 37°48' W 122°17'5 9.7
2017-May-19 03:31N 37°48' W 122°23'2 3.4
2017-May-19 03:01N 37°49' W 122°25'0 0.1
2017-May-19 02:31N 37°49' W 122°25'0 0.0
2017-May-19 02:00N 37°49' W 122°25'3 6.0
2017-May-19 01:31N 37°48' W 122°21'3 5.5
2017-May-19 01:01N 37°47' W 122°18'  

Dump ship's entire track history